Fort Gratiot, Michigan
Current Conditions -  °F | °C
As of 2:00 AM on Wednesday 22 Oct 2014 (Local Time) from CYZR Reporting Station
Overcast Overcast  
Wind Chill: 41°   Ceiling: 1700
Heat Index: 46°   Visibility: 9mi
Dew Point: 41°   Wind: 12mph
Humidity: 81%   Direction: 30°NNE
Pressure: 30.2"   Gusts: 21mph
Location:  43.08°N, 82.49°W
Report Text: CYZR 220600Z AUTO 03010G18KT 9SM OVC017 08/05 A3020 RMK SLP231
Loading
Personal Weather Stations






























Interactive Weather Map
Tropical Storm Tracking
New forecast layout! Learn more

10-Day Weather Forecast

Advertisements
Track Severe Weather on mobile